sensor_id;sensor_type;location;lat;lon;timestamp;P1;durP1;ratioP1;P2;durP2;ratioP2
7571;SDS011;3827;49.928;8.548;2023-11-21T00:01:01;4.33;;;2.90;;
7571;SDS011;3827;49.928;8.548;2023-11-21T00:03:29;4.35;;;2.83;;
7571;SDS011;3827;49.928;8.548;2023-11-21T00:05:56;6.88;;;2.97;;
7571;SDS011;3827;49.928;8.548;2023-11-21T00:08:22;7.43;;;3.17;;
7571;SDS011;3827;49.928;8.548;2023-11-21T00:10:50;8.07;;;3.20;;
7571;SDS011;3827;49.928;8.548;2023-11-21T00:13:17;8.10;;;3.58;;
7571;SDS011;3827;49.928;8.548;2023-11-21T00:15:44;5.13;;;2.78;;
7571;SDS011;3827;49.928;8.548;2023-11-21T00:18:10;4.90;;;2.63;;
7571;SDS011;3827;49.928;8.548;2023-11-21T00:20:37;6.70;;;3.10;;
7571;SDS011;3827;49.928;8.548;2023-11-21T00:23:04;6.03;;;3.05;;
7571;SDS011;3827;49.928;8.548;2023-11-21T00:25:32;6.03;;;2.97;;
7571;SDS011;3827;49.928;8.548;2023-11-21T00:28:00;7.18;;;2.88;;
7571;SDS011;3827;49.928;8.548;2023-11-21T00:30:27;6.32;;;3.17;;
7571;SDS011;3827;49.928;8.548;2023-11-21T00:32:55;5.40;;;3.03;;
7571;SDS011;3827;49.928;8.548;2023-11-21T00:35:22;5.57;;;3.08;;
7571;SDS011;3827;49.928;8.548;2023-11-21T00:37:48;4.60;;;2.80;;
7571;SDS011;3827;49.928;8.548;2023-11-21T00:40:15;6.07;;;3.13;;
7571;SDS011;3827;49.928;8.548;2023-11-21T00:42:44;6.10;;;3.22;;
7571;SDS011;3827;49.928;8.548;2023-11-21T00:45:12;4.68;;;3.33;;
7571;SDS011;3827;49.928;8.548;2023-11-21T00:47:39;6.00;;;3.58;;
7571;SDS011;3827;49.928;8.548;2023-11-21T00:50:07;7.43;;;3.73;;
7571;SDS011;3827;49.928;8.548;2023-11-21T00:52:35;6.90;;;4.03;;
7571;SDS011;3827;49.928;8.548;2023-11-21T00:55:01;7.82;;;3.88;;
7571;SDS011;3827;49.928;8.548;2023-11-21T00:57:28;5.90;;;3.60;;
7571;SDS011;3827;49.928;8.548;2023-11-21T00:59:55;5.60;;;3.80;;
7571;SDS011;3827;49.928;8.548;2023-11-21T01:02:23;5.90;;;3.90;;
7571;SDS011;3827;49.928;8.548;2023-11-21T01:04:50;5.97;;;4.10;;
7571;SDS011;3827;49.928;8.548;2023-11-21T01:07:17;7.85;;;4.10;;
7571;SDS011;3827;49.928;8.548;2023-11-21T01:09:45;7.10;;;4.30;;
7571;SDS011;3827;49.928;8.548;2023-11-21T01:12:12;7.03;;;4.00;;
7571;SDS011;3827;49.928;8.548;2023-11-21T01:14:39;6.07;;;4.93;;
7571;SDS011;3827;49.928;8.548;2023-11-21T01:17:05;7.25;;;4.60;;
7571;SDS011;3827;49.928;8.548;2023-11-21T01:19:33;6.55;;;4.25;;
7571;SDS011;3827;49.928;8.548;2023-11-21T01:22:00;6.43;;;4.22;;
7571;SDS011;3827;49.928;8.548;2023-11-21T01:24:27;6.25;;;4.85;;
7571;SDS011;3827;49.928;8.548;2023-11-21T01:26:54;7.22;;;4.82;;
7571;SDS011;3827;49.928;8.548;2023-11-21T01:29:20;7.35;;;5.65;;
7571;SDS011;3827;49.928;8.548;2023-11-21T01:31:47;7.43;;;5.05;;
7571;SDS011;3827;49.928;8.548;2023-11-21T01:34:14;9.43;;;5.17;;
7571;SDS011;3827;49.928;8.548;2023-11-21T01:36:42;7.18;;;5.28;;
7571;SDS011;3827;49.928;8.548;2023-11-21T01:39:09;6.97;;;5.20;;
7571;SDS011;3827;49.928;8.548;2023-11-21T01:41:40;5.53;;;4.50;;
7571;SDS011;3827;49.928;8.548;2023-11-21T01:44:09;7.68;;;5.45;;
7571;SDS011;3827;49.928;8.548;2023-11-21T01:46:36;8.47;;;5.80;;
7571;SDS011;3827;49.928;8.548;2023-11-21T01:49:03;7.70;;;5.73;;
7571;SDS011;3827;49.928;8.548;2023-11-21T01:51:31;6.90;;;5.63;;
7571;SDS011;3827;49.928;8.548;2023-11-21T01:54:00;7.82;;;5.80;;
7571;SDS011;3827;49.928;8.548;2023-11-21T01:56:30;8.33;;;5.70;;
7571;SDS011;3827;49.928;8.548;2023-11-21T01:58:57;8.85;;;5.90;;
7571;SDS011;3827;49.928;8.548;2023-11-21T02:01:24;6.97;;;5.63;;
7571;SDS011;3827;49.928;8.548;2023-11-21T02:03:51;8.27;;;5.97;;
7571;SDS011;3827;49.928;8.548;2023-11-21T02:06:18;6.97;;;5.97;;
7571;SDS011;3827;49.928;8.548;2023-11-21T02:08:47;8.02;;;5.90;;
7571;SDS011;3827;49.928;8.548;2023-11-21T02:11:16;8.03;;;5.63;;
7571;SDS011;3827;49.928;8.548;2023-11-21T02:13:44;6.82;;;5.70;;
7571;SDS011;3827;49.928;8.548;2023-11-21T02:16:12;7.93;;;5.70;;
7571;SDS011;3827;49.928;8.548;2023-11-21T02:18:39;8.00;;;5.80;;
7571;SDS011;3827;49.928;8.548;2023-11-21T02:21:06;9.32;;;6.38;;
7571;SDS011;3827;49.928;8.548;2023-11-21T02:23:36;10.07;;;6.72;;
7571;SDS011;3827;49.928;8.548;2023-11-21T02:26:07;7.22;;;6.45;;
7571;SDS011;3827;49.928;8.548;2023-11-21T02:28:34;7.00;;;6.25;;
7571;SDS011;3827;49.928;8.548;2023-11-21T02:31:01;11.80;;;7.80;;
7571;SDS011;3827;49.928;8.548;2023-11-21T02:33:29;9.00;;;7.68;;
7571;SDS011;3827;49.928;8.548;2023-11-21T02:35:58;10.43;;;7.70;;
7571;SDS011;3827;49.928;8.548;2023-11-21T02:38:25;9.65;;;7.40;;
7571;SDS011;3827;49.928;8.548;2023-11-21T02:40:53;10.95;;;7.25;;
7571;SDS011;3827;49.928;8.548;2023-11-21T02:43:20;8.97;;;7.20;;
7571;SDS011;3827;49.928;8.548;2023-11-21T02:45:47;9.00;;;7.30;;
7571;SDS011;3827;49.928;8.548;2023-11-21T02:48:13;10.50;;;7.15;;
7571;SDS011;3827;49.928;8.548;2023-11-21T02:50:40;7.20;;;6.45;;
7571;SDS011;3827;49.928;8.548;2023-11-21T02:53:08;9.98;;;7.63;;
7571;SDS011;3827;49.928;8.548;2023-11-21T02:55:36;7.97;;;6.70;;
7571;SDS011;3827;49.928;8.548;2023-11-21T02:58:04;9.73;;;6.72;;
7571;SDS011;3827;49.928;8.548;2023-11-21T03:00:31;9.60;;;7.00;;
7571;SDS011;3827;49.928;8.548;2023-11-21T03:02:57;8.60;;;7.43;;
7571;SDS011;3827;49.928;8.548;2023-11-21T03:05:25;7.10;;;6.40;;
7571;SDS011;3827;49.928;8.548;2023-11-21T03:07:53;6.75;;;6.07;;
7571;SDS011;3827;49.928;8.548;2023-11-21T03:10:20;7.57;;;6.40;;
7571;SDS011;3827;49.928;8.548;2023-11-21T03:12:48;7.00;;;6.00;;
7571;SDS011;3827;49.928;8.548;2023-11-21T03:15:16;8.90;;;6.15;;
7571;SDS011;3827;49.928;8.548;2023-11-21T03:17:43;7.82;;;7.00;;
7571;SDS011;3827;49.928;8.548;2023-11-21T03:20:10;9.88;;;7.40;;
7571;SDS011;3827;49.928;8.548;2023-11-21T03:22:38;10.48;;;8.10;;
7571;SDS011;3827;49.928;8.548;2023-11-21T03:25:06;9.18;;;8.27;;
7571;SDS011;3827;49.928;8.548;2023-11-21T03:27:35;10.82;;;8.32;;
7571;SDS011;3827;49.928;8.548;2023-11-21T03:30:03;8.25;;;7.50;;
7571;SDS011;3827;49.928;8.548;2023-11-21T03:32:33;7.22;;;6.43;;
7571;SDS011;3827;49.928;8.548;2023-11-21T03:35:00;10.57;;;9.45;;
7571;SDS011;3827;49.928;8.548;2023-11-21T03:37:27;11.68;;;8.93;;
7571;SDS011;3827;49.928;8.548;2023-11-21T03:39:54;9.70;;;8.70;;
7571;SDS011;3827;49.928;8.548;2023-11-21T03:42:21;9.27;;;8.35;;
7571;SDS011;3827;49.928;8.548;2023-11-21T03:44:48;8.82;;;7.93;;
7571;SDS011;3827;49.928;8.548;2023-11-21T03:47:15;7.70;;;7.00;;
7571;SDS011;3827;49.928;8.548;2023-11-21T03:49:43;8.00;;;7.25;;
7571;SDS011;3827;49.928;8.548;2023-11-21T03:52:10;9.13;;;8.30;;
7571;SDS011;3827;49.928;8.548;2023-11-21T03:54:37;9.25;;;8.30;;
7571;SDS011;3827;49.928;8.548;2023-11-21T03:57:04;8.52;;;7.70;;
7571;SDS011;3827;49.928;8.548;2023-11-21T03:59:31;9.00;;;7.53;;
7571;SDS011;3827;49.928;8.548;2023-11-21T04:01:57;8.80;;;7.22;;
7571;SDS011;3827;49.928;8.548;2023-11-21T04:04:24;9.80;;;7.50;;
7571;SDS011;3827;49.928;8.548;2023-11-21T04:06:52;8.65;;;7.53;;
7571;SDS011;3827;49.928;8.548;2023-11-21T04:09:19;8.05;;;7.20;;
7571;SDS011;3827;49.928;8.548;2023-11-21T04:11:49;9.75;;;7.25;;
7571;SDS011;3827;49.928;8.548;2023-11-21T04:14:15;10.47;;;8.00;;
7571;SDS011;3827;49.928;8.548;2023-11-21T04:16:42;9.80;;;7.55;;
7571;SDS011;3827;49.928;8.548;2023-11-21T04:19:09;9.82;;;7.10;;
7571;SDS011;3827;49.928;8.548;2023-11-21T04:21:39;9.65;;;7.80;;
7571;SDS011;3827;49.928;8.548;2023-11-21T04:24:08;8.45;;;7.53;;
7571;SDS011;3827;49.928;8.548;2023-11-21T04:26:34;8.07;;;7.28;;
7571;SDS011;3827;49.928;8.548;2023-11-21T04:29:01;9.05;;;7.57;;
7571;SDS011;3827;49.928;8.548;2023-11-21T04:31:29;8.10;;;7.03;;
7571;SDS011;3827;49.928;8.548;2023-11-21T04:33:56;8.77;;;7.32;;
7571;SDS011;3827;49.928;8.548;2023-11-21T04:36:23;9.50;;;7.70;;
7571;SDS011;3827;49.928;8.548;2023-11-21T04:38:50;8.02;;;7.18;;
7571;SDS011;3827;49.928;8.548;2023-11-21T04:41:18;10.80;;;8.20;;
7571;SDS011;3827;49.928;8.548;2023-11-21T04:43:45;9.98;;;8.10;;
7571;SDS011;3827;49.928;8.548;2023-11-21T04:46:11;10.10;;;8.07;;
7571;SDS011;3827;49.928;8.548;2023-11-21T04:48:38;9.03;;;8.10;;
7571;SDS011;3827;49.928;8.548;2023-11-21T04:51:05;8.95;;;8.05;;
7571;SDS011;3827;49.928;8.548;2023-11-21T04:53:32;10.00;;;8.40;;
7571;SDS011;3827;49.928;8.548;2023-11-21T04:55:59;11.00;;;8.82;;
7571;SDS011;3827;49.928;8.548;2023-11-21T04:58:27;10.48;;;8.90;;
7571;SDS011;3827;49.928;8.548;2023-11-21T05:00:54;11.73;;;9.30;;
7571;SDS011;3827;49.928;8.548;2023-11-21T05:03:21;11.18;;;8.52;;
7571;SDS011;3827;49.928;8.548;2023-11-21T05:05:48;10.32;;;8.20;;
7571;SDS011;3827;49.928;8.548;2023-11-21T05:08:21;10.23;;;8.50;;
7571;SDS011;3827;49.928;8.548;2023-11-21T05:10:53;9.00;;;8.10;;
7571;SDS011;3827;49.928;8.548;2023-11-21T05:13:20;8.27;;;7.38;;
7571;SDS011;3827;49.928;8.548;2023-11-21T05:15:49;7.72;;;6.93;;
7571;SDS011;3827;49.928;8.548;2023-11-21T05:18:16;7.32;;;6.25;;
7571;SDS011;3827;49.928;8.548;2023-11-21T05:20:43;7.57;;;6.50;;
7571;SDS011;3827;49.928;8.548;2023-11-21T05:23:10;6.90;;;6.20;;
7571;SDS011;3827;49.928;8.548;2023-11-21T05:25:37;6.30;;;5.70;;
7571;SDS011;3827;49.928;8.548;2023-11-21T05:28:03;6.50;;;5.70;;
7571;SDS011;3827;49.928;8.548;2023-11-21T05:30:31;6.53;;;5.45;;
7571;SDS011;3827;49.928;8.548;2023-11-21T05:32:59;5.60;;;5.10;;
7571;SDS011;3827;49.928;8.548;2023-11-21T05:35:26;4.90;;;4.40;;
7571;SDS011;3827;49.928;8.548;2023-11-21T05:37:53;4.63;;;4.22;;
7571;SDS011;3827;49.928;8.548;2023-11-21T05:40:19;5.20;;;4.43;;
7571;SDS011;3827;49.928;8.548;2023-11-21T05:42:47;5.22;;;4.38;;
7571;SDS011;3827;49.928;8.548;2023-11-21T05:45:14;4.57;;;3.90;;
7571;SDS011;3827;49.928;8.548;2023-11-21T05:47:42;3.40;;;3.20;;
7571;SDS011;3827;49.928;8.548;2023-11-21T05:50:13;3.20;;;2.90;;
7571;SDS011;3827;49.928;8.548;2023-11-21T05:52:41;3.30;;;2.72;;
7571;SDS011;3827;49.928;8.548;2023-11-21T05:55:09;2.78;;;2.50;;
7571;SDS011;3827;49.928;8.548;2023-11-21T05:57:36;2.60;;;2.40;;
7571;SDS011;3827;49.928;8.548;2023-11-21T06:00:04;2.38;;;2.13;;
7571;SDS011;3827;49.928;8.548;2023-11-21T06:02:36;2.50;;;2.30;;
7571;SDS011;3827;49.928;8.548;2023-11-21T06:05:04;2.88;;;2.30;;
7571;SDS011;3827;49.928;8.548;2023-11-21T06:07:32;3.25;;;2.55;;
7571;SDS011;3827;49.928;8.548;2023-11-21T06:10:00;2.60;;;2.40;;
7571;SDS011;3827;49.928;8.548;2023-11-21T06:12:27;3.17;;;2.63;;
7571;SDS011;3827;49.928;8.548;2023-11-21T06:14:54;2.75;;;2.55;;
7571;SDS011;3827;49.928;8.548;2023-11-21T06:17:21;3.35;;;3.05;;
7571;SDS011;3827;49.928;8.548;2023-11-21T06:19:50;3.70;;;3.40;;
7571;SDS011;3827;49.928;8.548;2023-11-21T06:22:17;4.55;;;4.15;;
7571;SDS011;3827;49.928;8.548;2023-11-21T06:24:46;4.30;;;3.90;;
7571;SDS011;3827;49.928;8.548;2023-11-21T06:27:12;6.43;;;4.53;;
7571;SDS011;3827;49.928;8.548;2023-11-21T06:29:41;5.43;;;4.60;;
7571;SDS011;3827;49.928;8.548;2023-11-21T06:32:08;5.38;;;4.88;;
7571;SDS011;3827;49.928;8.548;2023-11-21T06:34:35;5.22;;;4.80;;
7571;SDS011;3827;49.928;8.548;2023-11-21T06:37:02;4.95;;;4.45;;
7571;SDS011;3827;49.928;8.548;2023-11-21T06:39:28;4.70;;;4.28;;
7571;SDS011;3827;49.928;8.548;2023-11-21T06:41:57;5.95;;;4.90;;
7571;SDS011;3827;49.928;8.548;2023-11-21T06:44:25;6.07;;;4.95;;
7571;SDS011;3827;49.928;8.548;2023-11-21T06:46:52;6.53;;;4.97;;
7571;SDS011;3827;49.928;8.548;2023-11-21T06:49:19;6.28;;;5.28;;
7571;SDS011;3827;49.928;8.548;2023-11-21T06:51:45;5.78;;;5.28;;
7571;SDS011;3827;49.928;8.548;2023-11-21T06:54:12;5.40;;;4.90;;
7571;SDS011;3827;49.928;8.548;2023-11-21T06:56:39;5.60;;;5.10;;
7571;SDS011;3827;49.928;8.548;2023-11-21T06:59:07;6.88;;;6.00;;
7571;SDS011;3827;49.928;8.548;2023-11-21T07:01:35;7.22;;;6.13;;
7571;SDS011;3827;49.928;8.548;2023-11-21T07:04:04;7.17;;;5.87;;
7571;SDS011;3827;49.928;8.548;2023-11-21T07:06:31;7.25;;;5.80;;
7571;SDS011;3827;49.928;8.548;2023-11-21T07:08:58;7.15;;;6.45;;
7571;SDS011;3827;49.928;8.548;2023-11-21T07:11:26;8.88;;;7.07;;
7571;SDS011;3827;49.928;8.548;2023-11-21T07:13:52;7.40;;;6.60;;
7571;SDS011;3827;49.928;8.548;2023-11-21T07:16:20;7.32;;;6.13;;
7571;SDS011;3827;49.928;8.548;2023-11-21T07:18:48;8.20;;;7.03;;
7571;SDS011;3827;49.928;8.548;2023-11-21T07:21:15;9.27;;;7.70;;
7571;SDS011;3827;49.928;8.548;2023-11-21T07:23:42;9.27;;;8.00;;
7571;SDS011;3827;49.928;8.548;2023-11-21T07:26:09;10.23;;;8.17;;
7571;SDS011;3827;49.928;8.548;2023-11-21T07:28:35;11.18;;;8.32;;
7571;SDS011;3827;49.928;8.548;2023-11-21T07:31:02;8.68;;;7.78;;
7571;SDS011;3827;49.928;8.548;2023-11-21T07:33:31;12.07;;;9.10;;
7571;SDS011;3827;49.928;8.548;2023-11-21T07:35:57;10.90;;;8.52;;
7571;SDS011;3827;49.928;8.548;2023-11-21T07:38:24;15.10;;;9.98;;
7571;SDS011;3827;49.928;8.548;2023-11-21T07:40:51;15.60;;;10.85;;
7571;SDS011;3827;49.928;8.548;2023-11-21T07:43:17;15.40;;;10.02;;
7571;SDS011;3827;49.928;8.548;2023-11-21T07:45:45;11.63;;;9.35;;
7571;SDS011;3827;49.928;8.548;2023-11-21T07:48:12;16.27;;;11.07;;
7571;SDS011;3827;49.928;8.548;2023-11-21T07:50:40;17.15;;;11.70;;
7571;SDS011;3827;49.928;8.548;2023-11-21T07:53:07;16.55;;;11.23;;
7571;SDS011;3827;49.928;8.548;2023-11-21T07:55:34;14.95;;;10.98;;
7571;SDS011;3827;49.928;8.548;2023-11-21T07:58:01;16.27;;;11.35;;
7571;SDS011;3827;49.928;8.548;2023-11-21T08:00:29;16.63;;;10.53;;
7571;SDS011;3827;49.928;8.548;2023-11-21T08:02:56;15.00;;;10.27;;
7571;SDS011;3827;49.928;8.548;2023-11-21T08:05:22;13.20;;;10.10;;
7571;SDS011;3827;49.928;8.548;2023-11-21T08:07:51;14.03;;;10.10;;
7571;SDS011;3827;49.928;8.548;2023-11-21T08:10:17;14.32;;;9.40;;
7571;SDS011;3827;49.928;8.548;2023-11-21T08:12:46;12.68;;;9.38;;
7571;SDS011;3827;49.928;8.548;2023-11-21T08:15:13;12.88;;;9.35;;
7571;SDS011;3827;49.928;8.548;2023-11-21T08:17:40;12.30;;;8.95;;
7571;SDS011;3827;49.928;8.548;2023-11-21T08:20:07;11.05;;;8.82;;
7571;SDS011;3827;49.928;8.548;2023-11-21T08:22:35;9.50;;;8.40;;
7571;SDS011;3827;49.928;8.548;2023-11-21T08:25:04;12.98;;;8.00;;
7571;SDS011;3827;49.928;8.548;2023-11-21T08:27:31;11.45;;;8.90;;
7571;SDS011;3827;49.928;8.548;2023-11-21T08:29:58;10.68;;;7.93;;
7571;SDS011;3827;49.928;8.548;2023-11-21T08:32:25;8.63;;;7.45;;
7571;SDS011;3827;49.928;8.548;2023-11-21T08:34:51;9.10;;;7.18;;
7571;SDS011;3827;49.928;8.548;2023-11-21T08:37:18;9.00;;;7.50;;
7571;SDS011;3827;49.928;8.548;2023-11-21T08:39:46;8.43;;;6.93;;
7571;SDS011;3827;49.928;8.548;2023-11-21T08:42:15;8.05;;;7.15;;
7571;SDS011;3827;49.928;8.548;2023-11-21T08:44:41;7.65;;;6.45;;
7571;SDS011;3827;49.928;8.548;2023-11-21T08:47:08;7.07;;;6.38;;
7571;SDS011;3827;49.928;8.548;2023-11-21T08:49:35;7.72;;;6.60;;
7571;SDS011;3827;49.928;8.548;2023-11-21T08:52:03;7.40;;;6.63;;
7571;SDS011;3827;49.928;8.548;2023-11-21T08:54:30;6.95;;;5.93;;
7571;SDS011;3827;49.928;8.548;2023-11-21T08:56:57;5.70;;;5.20;;
7571;SDS011;3827;49.928;8.548;2023-11-21T08:59:25;7.23;;;5.67;;
7571;SDS011;3827;49.928;8.548;2023-11-21T09:01:52;7.22;;;5.35;;
7571;SDS011;3827;49.928;8.548;2023-11-21T09:04:19;6.22;;;5.18;;
7571;SDS011;3827;49.928;8.548;2023-11-21T09:06:45;7.47;;;5.60;;
7571;SDS011;3827;49.928;8.548;2023-11-21T09:09:12;5.63;;;5.00;;
7571;SDS011;3827;49.928;8.548;2023-11-21T09:11:39;5.65;;;5.05;;
7571;SDS011;3827;49.928;8.548;2023-11-21T09:14:05;7.47;;;5.45;;
7571;SDS011;3827;49.928;8.548;2023-11-21T09:16:35;5.95;;;4.97;;
7571;SDS011;3827;49.928;8.548;2023-11-21T09:19:01;6.10;;;5.38;;
7571;SDS011;3827;49.928;8.548;2023-11-21T09:21:30;5.80;;;5.20;;
7571;SDS011;3827;49.928;8.548;2023-11-21T09:23:57;6.15;;;5.10;;
7571;SDS011;3827;49.928;8.548;2023-11-21T09:26:23;6.05;;;5.43;;
7571;SDS011;3827;49.928;8.548;2023-11-21T09:28:51;6.47;;;5.25;;
7571;SDS011;3827;49.928;8.548;2023-11-21T09:31:18;6.35;;;5.45;;
7571;SDS011;3827;49.928;8.548;2023-11-21T09:33:49;5.75;;;5.05;;
7571;SDS011;3827;49.928;8.548;2023-11-21T09:36:16;6.03;;;5.43;;
7571;SDS011;3827;49.928;8.548;2023-11-21T09:38:43;6.13;;;4.57;;
7571;SDS011;3827;49.928;8.548;2023-11-21T09:41:11;5.57;;;4.85;;
7571;SDS011;3827;49.928;8.548;2023-11-21T09:43:45;6.97;;;5.00;;
7571;SDS011;3827;49.928;8.548;2023-11-21T09:46:13;5.90;;;5.30;;
7571;SDS011;3827;49.928;8.548;2023-11-21T09:48:45;5.97;;;5.13;;
7571;SDS011;3827;49.928;8.548;2023-11-21T09:51:17;4.72;;;4.18;;
7571;SDS011;3827;49.928;8.548;2023-11-21T09:53:47;5.88;;;4.50;;
7571;SDS011;3827;49.928;8.548;2023-11-21T09:56:17;5.55;;;4.25;;
7571;SDS011;3827;49.928;8.548;2023-11-21T09:58:50;5.50;;;5.00;;
7571;SDS011;3827;49.928;8.548;2023-11-21T10:01:18;4.63;;;3.90;;
7571;SDS011;3827;49.928;8.548;2023-11-21T10:03:45;4.60;;;4.15;;
7571;SDS011;3827;49.928;8.548;2023-11-21T10:06:13;5.72;;;4.45;;
7571;SDS011;3827;49.928;8.548;2023-11-21T10:08:41;5.30;;;4.10;;
7571;SDS011;3827;49.928;8.548;2023-11-21T10:11:09;4.40;;;3.67;;
7571;SDS011;3827;49.928;8.548;2023-11-21T10:13:39;4.13;;;3.40;;
7571;SDS011;3827;49.928;8.548;2023-11-21T10:16:07;4.95;;;3.92;;
7571;SDS011;3827;49.928;8.548;2023-11-21T10:18:37;4.32;;;3.92;;
7571;SDS011;3827;49.928;8.548;2023-11-21T10:21:05;5.90;;;3.70;;
7571;SDS011;3827;49.928;8.548;2023-11-21T10:23:34;5.05;;;3.67;;
7571;SDS011;3827;49.928;8.548;2023-11-21T10:26:01;4.47;;;3.15;;
7571;SDS011;3827;49.928;8.548;2023-11-21T10:28:28;5.15;;;3.50;;
7571;SDS011;3827;49.928;8.548;2023-11-21T10:30:55;5.03;;;3.20;;
7571;SDS011;3827;49.928;8.548;2023-11-21T10:33:26;3.97;;;2.97;;
7571;SDS011;3827;49.928;8.548;2023-11-21T10:35:54;5.05;;;3.00;;
7571;SDS011;3827;49.928;8.548;2023-11-21T10:38:21;3.90;;;2.97;;
7571;SDS011;3827;49.928;8.548;2023-11-21T10:40:51;4.50;;;2.80;;
7571;SDS011;3827;49.928;8.548;2023-11-21T10:43:19;3.63;;;3.00;;
7571;SDS011;3827;49.928;8.548;2023-11-21T10:45:50;4.67;;;3.20;;
7571;SDS011;3827;49.928;8.548;2023-11-21T10:48:17;3.55;;;2.90;;
7571;SDS011;3827;49.928;8.548;2023-11-21T10:50:43;3.88;;;2.78;;
7571;SDS011;3827;49.928;8.548;2023-11-21T10:53:11;4.10;;;2.90;;
7571;SDS011;3827;49.928;8.548;2023-11-21T10:55:38;4.03;;;2.67;;
7571;SDS011;3827;49.928;8.548;2023-11-21T10:58:06;4.55;;;3.03;;
7571;SDS011;3827;49.928;8.548;2023-11-21T11:00:36;3.88;;;2.97;;
7571;SDS011;3827;49.928;8.548;2023-11-21T11:03:05;3.40;;;3.10;;
7571;SDS011;3827;49.928;8.548;2023-11-21T11:05:38;3.80;;;3.27;;
7571;SDS011;3827;49.928;8.548;2023-11-21T11:08:07;3.67;;;3.15;;
7571;SDS011;3827;49.928;8.548;2023-11-21T11:10:38;4.78;;;3.40;;
7571;SDS011;3827;49.928;8.548;2023-11-21T11:13:06;5.70;;;3.85;;
7571;SDS011;3827;49.928;8.548;2023-11-21T11:15:33;4.17;;;3.20;;
7571;SDS011;3827;49.928;8.548;2023-11-21T11:18:00;4.20;;;3.03;;
7571;SDS011;3827;49.928;8.548;2023-11-21T11:20:32;3.22;;;2.50;;
7571;SDS011;3827;49.928;8.548;2023-11-21T11:23:10;3.97;;;3.10;;
7571;SDS011;3827;49.928;8.548;2023-11-21T11:25:58;3.92;;;2.80;;
7571;SDS011;3827;49.928;8.548;2023-11-21T11:28:42;4.40;;;2.47;;
7571;SDS011;3827;49.928;8.548;2023-11-21T11:31:14;3.03;;;2.20;;
7571;SDS011;3827;49.928;8.548;2023-11-21T11:33:52;4.10;;;2.50;;
7571;SDS011;3827;49.928;8.548;2023-11-21T11:36:26;4.72;;;2.60;;
7571;SDS011;3827;49.928;8.548;2023-11-21T11:38:59;4.72;;;2.60;;
7571;SDS011;3827;49.928;8.548;2023-11-21T11:41:27;3.75;;;2.28;;
7571;SDS011;3827;49.928;8.548;2023-11-21T11:43:59;5.50;;;2.33;;
7571;SDS011;3827;49.928;8.548;2023-11-21T11:46:42;4.65;;;2.92;;
7571;SDS011;3827;49.928;8.548;2023-11-21T11:49:12;5.25;;;3.13;;
7571;SDS011;3827;49.928;8.548;2023-11-21T11:52:03;4.60;;;2.40;;
7571;SDS011;3827;49.928;8.548;2023-11-21T11:54:58;4.05;;;2.90;;
7571;SDS011;3827;49.928;8.548;2023-11-21T11:57:25;5.47;;;2.70;;
7571;SDS011;3827;49.928;8.548;2023-11-21T12:02:41;4.05;;;3.22;;
7571;SDS011;3827;49.928;8.548;2023-11-21T12:05:09;6.72;;;3.33;;
7571;SDS011;3827;49.928;8.548;2023-11-21T12:07:44;4.60;;;3.55;;
7571;SDS011;3827;49.928;8.548;2023-11-21T12:10:13;5.75;;;3.22;;
7571;SDS011;3827;49.928;8.548;2023-11-21T12:12:43;4.93;;;3.20;;
7571;SDS011;3827;49.928;8.548;2023-11-21T12:15:15;3.60;;;3.25;;
7571;SDS011;3827;49.928;8.548;2023-11-21T12:17:43;3.30;;;3.00;;
7571;SDS011;3827;49.928;8.548;2023-11-21T12:20:10;4.50;;;3.50;;
7571;SDS011;3827;49.928;8.548;2023-11-21T12:22:42;4.20;;;3.40;;
7571;SDS011;3827;49.928;8.548;2023-11-21T12:25:10;4.22;;;3.25;;
7571;SDS011;3827;49.928;8.548;2023-11-21T12:27:41;5.43;;;3.33;;
7571;SDS011;3827;49.928;8.548;2023-11-21T12:30:11;4.95;;;3.20;;
7571;SDS011;3827;49.928;8.548;2023-11-21T12:32:42;3.30;;;3.00;;
7571;SDS011;3827;49.928;8.548;2023-11-21T12:35:11;3.85;;;3.15;;
7571;SDS011;3827;49.928;8.548;2023-11-21T12:37:38;5.00;;;3.05;;
7571;SDS011;3827;49.928;8.548;2023-11-21T12:40:08;4.30;;;3.20;;
7571;SDS011;3827;49.928;8.548;2023-11-21T12:42:37;5.65;;;3.50;;
7571;SDS011;3827;49.928;8.548;2023-11-21T12:45:08;4.28;;;3.05;;
7571;SDS011;3827;49.928;8.548;2023-11-21T12:47:41;6.00;;;3.83;;
7571;SDS011;3827;49.928;8.548;2023-11-21T12:50:10;4.22;;;3.03;;
7571;SDS011;3827;49.928;8.548;2023-11-21T12:52:40;7.68;;;3.15;;
7571;SDS011;3827;49.928;8.548;2023-11-21T12:55:15;4.57;;;3.65;;
7571;SDS011;3827;49.928;8.548;2023-11-21T12:57:43;5.47;;;3.30;;
7571;SDS011;3827;49.928;8.548;2023-11-21T13:00:12;5.55;;;3.97;;
7571;SDS011;3827;49.928;8.548;2023-11-21T13:02:53;5.70;;;4.00;;
7571;SDS011;3827;49.928;8.548;2023-11-21T13:05:28;6.22;;;5.63;;
7571;SDS011;3827;49.928;8.548;2023-11-21T13:07:56;7.32;;;5.10;;
7571;SDS011;3827;49.928;8.548;2023-11-21T13:10:25;6.53;;;5.82;;
7571;SDS011;3827;49.928;8.548;2023-11-21T13:12:55;7.20;;;4.32;;
7571;SDS011;3827;49.928;8.548;2023-11-21T13:15:24;5.30;;;4.70;;
7571;SDS011;3827;49.928;8.548;2023-11-21T13:17:54;5.88;;;4.65;;
7571;SDS011;3827;49.928;8.548;2023-11-21T13:20:22;5.63;;;4.00;;
7571;SDS011;3827;49.928;8.548;2023-11-21T13:22:50;5.30;;;3.83;;
7571;SDS011;3827;49.928;8.548;2023-11-21T13:25:20;6.20;;;3.67;;
7571;SDS011;3827;49.928;8.548;2023-11-21T13:27:47;5.80;;;3.55;;
7571;SDS011;3827;49.928;8.548;2023-11-21T13:30:15;5.65;;;3.22;;
7571;SDS011;3827;49.928;8.548;2023-11-21T13:32:43;4.05;;;3.10;;
7571;SDS011;3827;49.928;8.548;2023-11-21T13:35:13;4.20;;;3.23;;
7571;SDS011;3827;49.928;8.548;2023-11-21T13:37:48;5.00;;;3.65;;
7571;SDS011;3827;49.928;8.548;2023-11-21T13:40:19;5.40;;;3.58;;
7571;SDS011;3827;49.928;8.548;2023-11-21T13:42:51;4.47;;;3.67;;
7571;SDS011;3827;49.928;8.548;2023-11-21T13:45:20;4.50;;;3.45;;
7571;SDS011;3827;49.928;8.548;2023-11-21T13:47:48;4.10;;;3.00;;
7571;SDS011;3827;49.928;8.548;2023-11-21T13:50:18;6.45;;;3.42;;
7571;SDS011;3827;49.928;8.548;2023-11-21T13:52:48;4.53;;;3.55;;
7571;SDS011;3827;49.928;8.548;2023-11-21T13:55:16;3.45;;;3.15;;
7571;SDS011;3827;49.928;8.548;2023-11-21T13:57:43;4.73;;;3.13;;
7571;SDS011;3827;49.928;8.548;2023-11-21T14:00:13;3.97;;;3.17;;
7571;SDS011;3827;49.928;8.548;2023-11-21T14:03:01;7.07;;;3.67;;
7571;SDS011;3827;49.928;8.548;2023-11-21T14:05:34;6.05;;;3.63;;
7571;SDS011;3827;49.928;8.548;2023-11-21T14:08:01;4.55;;;3.58;;
7571;SDS011;3827;49.928;8.548;2023-11-21T14:10:29;3.80;;;3.40;;
7571;SDS011;3827;49.928;8.548;2023-11-21T14:13:05;5.03;;;3.63;;
7571;SDS011;3827;49.928;8.548;2023-11-21T14:15:32;3.80;;;3.40;;
7571;SDS011;3827;49.928;8.548;2023-11-21T14:18:03;3.45;;;2.95;;
7571;SDS011;3827;49.928;8.548;2023-11-21T14:20:33;4.03;;;3.15;;
7571;SDS011;3827;49.928;8.548;2023-11-21T14:23:02;7.30;;;4.03;;
7571;SDS011;3827;49.928;8.548;2023-11-21T14:25:29;6.20;;;3.60;;
7571;SDS011;3827;49.928;8.548;2023-11-21T14:27:57;5.35;;;3.60;;
7571;SDS011;3827;49.928;8.548;2023-11-21T14:30:23;6.78;;;3.97;;
7571;SDS011;3827;49.928;8.548;2023-11-21T14:32:55;7.25;;;4.07;;
7571;SDS011;3827;49.928;8.548;2023-11-21T14:35:24;5.45;;;3.95;;
7571;SDS011;3827;49.928;8.548;2023-11-21T14:37:53;5.35;;;3.30;;
7571;SDS011;3827;49.928;8.548;2023-11-21T14:40:20;5.53;;;3.60;;
7571;SDS011;3827;49.928;8.548;2023-11-21T14:42:49;6.82;;;4.50;;
7571;SDS011;3827;49.928;8.548;2023-11-21T14:45:18;4.63;;;3.70;;
7571;SDS011;3827;49.928;8.548;2023-11-21T14:47:45;5.50;;;3.70;;
7571;SDS011;3827;49.928;8.548;2023-11-21T14:50:19;6.65;;;4.00;;
7571;SDS011;3827;49.928;8.548;2023-11-21T14:53:14;5.53;;;4.18;;
7571;SDS011;3827;49.928;8.548;2023-11-21T14:55:40;6.50;;;3.83;;
7571;SDS011;3827;49.928;8.548;2023-11-21T14:58:20;4.75;;;3.70;;
7571;SDS011;3827;49.928;8.548;2023-11-21T15:00:52;7.43;;;4.43;;
7571;SDS011;3827;49.928;8.548;2023-11-21T15:03:23;4.40;;;3.50;;
7571;SDS011;3827;49.928;8.548;2023-11-21T15:06:08;4.60;;;3.80;;
7571;SDS011;3827;49.928;8.548;2023-11-21T15:09:03;5.75;;;4.25;;
7571;SDS011;3827;49.928;8.548;2023-11-21T15:11:47;5.80;;;4.20;;
7571;SDS011;3827;49.928;8.548;2023-11-21T15:14:16;5.93;;;4.30;;
7571;SDS011;3827;49.928;8.548;2023-11-21T15:16:48;5.33;;;4.13;;
7571;SDS011;3827;49.928;8.548;2023-11-21T15:19:18;6.33;;;4.30;;
7571;SDS011;3827;49.928;8.548;2023-11-21T15:21:51;4.70;;;4.10;;
7571;SDS011;3827;49.928;8.548;2023-11-21T15:24:19;6.40;;;4.05;;